sensor_id;sensor_type;location;lat;lon;timestamp;P1;durP1;ratioP1;P2;durP2;ratioP2
14078;SDS011;7115;50.150;8.568;2024-03-23T00:54:31;15.40;;;9.90;;
14078;SDS011;7115;50.150;8.568;2024-03-23T00:56:57;16.63;;;10.77;;
14078;SDS011;7115;50.150;8.568;2024-03-23T00:59:23;15.27;;;9.40;;
14078;SDS011;7115;50.150;8.568;2024-03-23T01:01:53;14.23;;;8.90;;
14078;SDS011;7115;50.150;8.568;2024-03-23T01:04:19;14.67;;;9.70;;
14078;SDS011;7115;50.150;8.568;2024-03-23T01:06:47;12.53;;;8.87;;
14078;SDS011;7115;50.150;8.568;2024-03-23T01:09:13;13.57;;;8.93;;
14078;SDS011;7115;50.150;8.568;2024-03-23T01:11:39;14.60;;;8.97;;
14078;SDS011;7115;50.150;8.568;2024-03-23T01:14:05;16.30;;;8.57;;
14078;SDS011;7115;50.150;8.568;2024-03-23T01:16:31;15.70;;;9.60;;
14078;SDS011;7115;50.150;8.568;2024-03-23T01:18:57;14.70;;;8.40;;
14078;SDS011;7115;50.150;8.568;2024-03-23T01:21:23;14.27;;;9.10;;
14078;SDS011;7115;50.150;8.568;2024-03-23T01:23:51;13.60;;;8.50;;
14078;SDS011;7115;50.150;8.568;2024-03-23T01:26:17;17.57;;;8.97;;
14078;SDS011;7115;50.150;8.568;2024-03-23T01:28:43;14.27;;;8.47;;
14078;SDS011;7115;50.150;8.568;2024-03-23T01:31:09;12.23;;;7.97;;
14078;SDS011;7115;50.150;8.568;2024-03-23T01:33:35;13.17;;;9.03;;
14078;SDS011;7115;50.150;8.568;2024-03-23T01:36:01;18.70;;;8.90;;
14078;SDS011;7115;50.150;8.568;2024-03-23T01:38:27;17.93;;;9.17;;
14078;SDS011;7115;50.150;8.568;2024-03-23T01:40:57;12.80;;;9.00;;
14078;SDS011;7115;50.150;8.568;2024-03-23T01:43:23;14.17;;;8.87;;
14078;SDS011;7115;50.150;8.568;2024-03-23T01:45:49;14.03;;;8.37;;
14078;SDS011;7115;50.150;8.568;2024-03-23T01:48:15;14.07;;;8.83;;
14078;SDS011;7115;50.150;8.568;2024-03-23T01:50:41;12.77;;;8.67;;
14078;SDS011;7115;50.150;8.568;2024-03-23T01:53:07;14.57;;;8.43;;
14078;SDS011;7115;50.150;8.568;2024-03-23T01:55:33;14.77;;;8.30;;
14078;SDS011;7115;50.150;8.568;2024-03-23T01:58:01;13.60;;;8.20;;
14078;SDS011;7115;50.150;8.568;2024-03-23T02:00:27;14.87;;;8.40;;
14078;SDS011;7115;50.150;8.568;2024-03-23T02:02:53;17.70;;;9.20;;
14078;SDS011;7115;50.150;8.568;2024-03-23T02:05:20;13.83;;;7.70;;
14078;SDS011;7115;50.150;8.568;2024-03-23T02:07:46;10.80;;;7.23;;
14078;SDS011;7115;50.150;8.568;2024-03-23T02:10:12;13.50;;;8.10;;
14078;SDS011;7115;50.150;8.568;2024-03-23T02:12:41;12.07;;;7.60;;
14078;SDS011;7115;50.150;8.568;2024-03-23T02:15:08;13.10;;;8.00;;
14078;SDS011;7115;50.150;8.568;2024-03-23T02:17:35;14.60;;;7.80;;
14078;SDS011;7115;50.150;8.568;2024-03-23T02:20:01;13.87;;;8.30;;
14078;SDS011;7115;50.150;8.568;2024-03-23T02:22:34;13.87;;;7.87;;
14078;SDS011;7115;50.150;8.568;2024-03-23T02:25:05;14.33;;;8.50;;
14078;SDS011;7115;50.150;8.568;2024-03-23T02:27:32;13.50;;;8.23;;
14078;SDS011;7115;50.150;8.568;2024-03-23T02:29:58;10.93;;;7.60;;
14078;SDS011;7115;50.150;8.568;2024-03-23T02:32:25;13.30;;;7.40;;
14078;SDS011;7115;50.150;8.568;2024-03-23T02:34:51;16.63;;;7.97;;
14078;SDS011;7115;50.150;8.568;2024-03-23T02:37:17;14.33;;;6.93;;
14078;SDS011;7115;50.150;8.568;2024-03-23T02:39:43;11.90;;;7.40;;
14078;SDS011;7115;50.150;8.568;2024-03-23T02:42:10;11.63;;;6.80;;
14078;SDS011;7115;50.150;8.568;2024-03-23T02:44:36;9.47;;;6.20;;
14078;SDS011;7115;50.150;8.568;2024-03-23T02:47:02;12.40;;;7.73;;
14078;SDS011;7115;50.150;8.568;2024-03-23T02:49:28;12.67;;;7.20;;
14078;SDS011;7115;50.150;8.568;2024-03-23T02:51:54;11.73;;;7.50;;
14078;SDS011;7115;50.150;8.568;2024-03-23T02:54:20;10.97;;;8.03;;
14078;SDS011;7115;50.150;8.568;2024-03-23T02:56:46;13.17;;;8.13;;
14078;SDS011;7115;50.150;8.568;2024-03-23T02:59:14;10.90;;;7.43;;
14078;SDS011;7115;50.150;8.568;2024-03-23T03:01:40;11.17;;;7.10;;
14078;SDS011;7115;50.150;8.568;2024-03-23T03:04:06;12.87;;;7.33;;
14078;SDS011;7115;50.150;8.568;2024-03-23T03:06:32;11.13;;;7.03;;
14078;SDS011;7115;50.150;8.568;2024-03-23T03:08:58;11.27;;;7.30;;
14078;SDS011;7115;50.150;8.568;2024-03-23T03:11:24;14.13;;;7.60;;
14078;SDS011;7115;50.150;8.568;2024-03-23T03:13:50;12.57;;;7.77;;
14078;SDS011;7115;50.150;8.568;2024-03-23T03:16:17;11.17;;;7.30;;
14078;SDS011;7115;50.150;8.568;2024-03-23T03:18:43;12.87;;;7.30;;
14078;SDS011;7115;50.150;8.568;2024-03-23T03:21:11;10.07;;;7.07;;
14078;SDS011;7115;50.150;8.568;2024-03-23T03:23:37;12.33;;;8.87;;
14078;SDS011;7115;50.150;8.568;2024-03-23T03:26:04;14.10;;;8.93;;
14078;SDS011;7115;50.150;8.568;2024-03-23T03:28:30;13.57;;;8.67;;
14078;SDS011;7115;50.150;8.568;2024-03-23T03:30:57;13.47;;;7.90;;
14078;SDS011;7115;50.150;8.568;2024-03-23T03:33:26;16.17;;;10.27;;
14078;SDS011;7115;50.150;8.568;2024-03-23T03:35:52;19.37;;;10.40;;
14078;SDS011;7115;50.150;8.568;2024-03-23T03:38:18;14.67;;;9.10;;
14078;SDS011;7115;50.150;8.568;2024-03-23T03:40:44;16.37;;;9.60;;
14078;SDS011;7115;50.150;8.568;2024-03-23T03:43:10;18.27;;;10.57;;
14078;SDS011;7115;50.150;8.568;2024-03-23T03:45:36;14.50;;;9.37;;
14078;SDS011;7115;50.150;8.568;2024-03-23T03:48:04;18.50;;;10.00;;
14078;SDS011;7115;50.150;8.568;2024-03-23T03:50:32;16.50;;;10.03;;
14078;SDS011;7115;50.150;8.568;2024-03-23T03:52:58;18.10;;;11.97;;
14078;SDS011;7115;50.150;8.568;2024-03-23T03:55:24;20.60;;;12.07;;
14078;SDS011;7115;50.150;8.568;2024-03-23T03:57:50;21.67;;;13.70;;
14078;SDS011;7115;50.150;8.568;2024-03-23T04:00:16;27.23;;;14.23;;
14078;SDS011;7115;50.150;8.568;2024-03-23T04:02:43;27.57;;;16.23;;
14078;SDS011;7115;50.150;8.568;2024-03-23T04:05:09;29.47;;;14.83;;
14078;SDS011;7115;50.150;8.568;2024-03-23T04:07:36;24.90;;;13.10;;
14078;SDS011;7115;50.150;8.568;2024-03-23T04:10:02;12.20;;;6.67;;
14078;SDS011;7115;50.150;8.568;2024-03-23T04:12:32;6.80;;;4.67;;
14078;SDS011;7115;50.150;8.568;2024-03-23T04:14:58;7.83;;;4.03;;
14078;SDS011;7115;50.150;8.568;2024-03-23T04:17:24;6.20;;;3.30;;
14078;SDS011;7115;50.150;8.568;2024-03-23T04:19:51;3.13;;;2.33;;
14078;SDS011;7115;50.150;8.568;2024-03-23T04:22:17;3.43;;;2.20;;
14078;SDS011;7115;50.150;8.568;2024-03-23T04:24:45;1.80;;;1.40;;
14078;SDS011;7115;50.150;8.568;2024-03-23T04:27:11;1.30;;;1.00;;
14078;SDS011;7115;50.150;8.568;2024-03-23T04:29:37;1.00;;;0.73;;
14078;SDS011;7115;50.150;8.568;2024-03-23T04:32:03;1.50;;;1.00;;
14078;SDS011;7115;50.150;8.568;2024-03-23T04:34:30;1.03;;;0.70;;
14078;SDS011;7115;50.150;8.568;2024-03-23T04:36:58;0.80;;;0.73;;
14078;SDS011;7115;50.150;8.568;2024-03-23T04:39:24;0.40;;;0.40;;
14078;SDS011;7115;50.150;8.568;2024-03-23T04:41:51;0.93;;;0.50;;
14078;SDS011;7115;50.150;8.568;2024-03-23T04:44:17;0.40;;;0.40;;
14078;SDS011;7115;50.150;8.568;2024-03-23T04:46:43;3.37;;;0.30;;
14078;SDS011;7115;50.150;8.568;2024-03-23T04:49:09;4.13;;;0.40;;
14078;SDS011;7115;50.150;8.568;2024-03-23T04:51:35;0.33;;;0.30;;
14078;SDS011;7115;50.150;8.568;2024-03-23T04:54:07;0.40;;;0.33;;
14078;SDS011;7115;50.150;8.568;2024-03-23T04:56:33;0.70;;;0.50;;
14078;SDS011;7115;50.150;8.568;2024-03-23T04:59:00;0.97;;;0.70;;
14078;SDS011;7115;50.150;8.568;2024-03-23T05:01:26;0.70;;;0.53;;
14078;SDS011;7115;50.150;8.568;2024-03-23T05:03:52;1.07;;;0.57;;
14078;SDS011;7115;50.150;8.568;2024-03-23T05:06:18;0.80;;;0.60;;
14078;SDS011;7115;50.150;8.568;2024-03-23T05:08:44;0.77;;;0.70;;
14078;SDS011;7115;50.150;8.568;2024-03-23T05:11:11;0.60;;;0.50;;
14078;SDS011;7115;50.150;8.568;2024-03-23T05:13:37;0.90;;;0.80;;
14078;SDS011;7115;50.150;8.568;2024-03-23T05:16:05;1.13;;;0.70;;
14078;SDS011;7115;50.150;8.568;2024-03-23T05:18:31;1.23;;;0.80;;
14078;SDS011;7115;50.150;8.568;2024-03-23T05:20:57;0.57;;;0.57;;
14078;SDS011;7115;50.150;8.568;2024-03-23T05:23:24;0.90;;;0.60;;
14078;SDS011;7115;50.150;8.568;2024-03-23T05:25:50;1.63;;;0.60;;
14078;SDS011;7115;50.150;8.568;2024-03-23T05:28:17;1.73;;;0.73;;
14078;SDS011;7115;50.150;8.568;2024-03-23T05:30:43;0.70;;;0.60;;
14078;SDS011;7115;50.150;8.568;2024-03-23T05:33:10;1.30;;;0.90;;
14078;SDS011;7115;50.150;8.568;2024-03-23T05:35:36;1.13;;;0.70;;
14078;SDS011;7115;50.150;8.568;2024-03-23T05:38:02;0.80;;;0.73;;
14078;SDS011;7115;50.150;8.568;2024-03-23T05:40:28;2.40;;;1.03;;
14078;SDS011;7115;50.150;8.568;2024-03-23T05:42:54;1.47;;;1.37;;
14078;SDS011;7115;50.150;8.568;2024-03-23T05:45:23;4.30;;;1.40;;
14078;SDS011;7115;50.150;8.568;2024-03-23T05:47:49;1.53;;;1.40;;
14078;SDS011;7115;50.150;8.568;2024-03-23T05:50:17;2.43;;;1.97;;
14078;SDS011;7115;50.150;8.568;2024-03-23T05:52:43;1.40;;;0.97;;
14078;SDS011;7115;50.150;8.568;2024-03-23T05:55:09;1.13;;;0.90;;
14078;SDS011;7115;50.150;8.568;2024-03-23T05:57:35;1.63;;;0.80;;
14078;SDS011;7115;50.150;8.568;2024-03-23T06:00:01;1.30;;;0.80;;
14078;SDS011;7115;50.150;8.568;2024-03-23T06:02:29;1.27;;;0.80;;
14078;SDS011;7115;50.150;8.568;2024-03-23T06:04:55;0.77;;;0.60;;
14078;SDS011;7115;50.150;8.568;2024-03-23T06:07:22;1.97;;;0.60;;
14078;SDS011;7115;50.150;8.568;2024-03-23T06:09:48;0.40;;;0.40;;
14078;SDS011;7115;50.150;8.568;2024-03-23T06:12:16;0.60;;;0.23;;
14078;SDS011;7115;50.150;8.568;2024-03-23T06:14:42;0.50;;;0.40;;
14078;SDS011;7115;50.150;8.568;2024-03-23T06:17:08;0.53;;;0.37;;
14078;SDS011;7115;50.150;8.568;2024-03-23T06:19:34;0.23;;;0.10;;
14078;SDS011;7115;50.150;8.568;2024-03-23T06:22:00;1.00;;;0.10;;
14078;SDS011;7115;50.150;8.568;2024-03-23T06:24:27;0.83;;;0.20;;
14078;SDS011;7115;50.150;8.568;2024-03-23T06:26:53;0.33;;;0.33;;
14078;SDS011;7115;50.150;8.568;2024-03-23T06:29:19;0.37;;;0.20;;
14078;SDS011;7115;50.150;8.568;2024-03-23T06:31:51;0.30;;;0.20;;
14078;SDS011;7115;50.150;8.568;2024-03-23T06:34:18;0.07;;;0.07;;
14078;SDS011;7115;50.150;8.568;2024-03-23T06:36:44;0.70;;;0.20;;
14078;SDS011;7115;50.150;8.568;2024-03-23T06:39:12;0.60;;;0.30;;
14078;SDS011;7115;50.150;8.568;2024-03-23T06:41:42;0.40;;;0.20;;
14078;SDS011;7115;50.150;8.568;2024-03-23T06:44:08;1.17;;;0.40;;
14078;SDS011;7115;50.150;8.568;2024-03-23T06:46:34;0.30;;;0.20;;
14078;SDS011;7115;50.150;8.568;2024-03-23T06:49:00;0.30;;;0.23;;
14078;SDS011;7115;50.150;8.568;2024-03-23T06:51:26;0.70;;;0.20;;
14078;SDS011;7115;50.150;8.568;2024-03-23T06:53:52;1.77;;;0.50;;
14078;SDS011;7115;50.150;8.568;2024-03-23T06:56:18;0.83;;;0.40;;
14078;SDS011;7115;50.150;8.568;2024-03-23T06:58:45;0.40;;;0.40;;
14078;SDS011;7115;50.150;8.568;2024-03-23T07:01:11;1.60;;;0.50;;
14078;SDS011;7115;50.150;8.568;2024-03-23T07:03:37;1.50;;;0.50;;
14078;SDS011;7115;50.150;8.568;2024-03-23T07:06:03;1.10;;;0.50;;
14078;SDS011;7115;50.150;8.568;2024-03-23T07:08:29;1.33;;;0.40;;
14078;SDS011;7115;50.150;8.568;2024-03-23T07:10:55;1.73;;;0.53;;
14078;SDS011;7115;50.150;8.568;2024-03-23T07:13:21;2.83;;;0.70;;
14078;SDS011;7115;50.150;8.568;2024-03-23T07:15:52;1.77;;;0.63;;
14078;SDS011;7115;50.150;8.568;2024-03-23T07:18:20;1.70;;;0.43;;
14078;SDS011;7115;50.150;8.568;2024-03-23T07:20:51;2.40;;;1.03;;
14078;SDS011;7115;50.150;8.568;2024-03-23T07:23:18;5.53;;;1.03;;
14078;SDS011;7115;50.150;8.568;2024-03-23T07:25:44;6.13;;;1.20;;
14078;SDS011;7115;50.150;8.568;2024-03-23T07:28:10;4.73;;;1.10;;
14078;SDS011;7115;50.150;8.568;2024-03-23T07:30:36;3.13;;;1.00;;
14078;SDS011;7115;50.150;8.568;2024-03-23T07:33:03;2.93;;;0.90;;
14078;SDS011;7115;50.150;8.568;2024-03-23T07:35:29;5.13;;;0.93;;
14078;SDS011;7115;50.150;8.568;2024-03-23T07:37:55;4.07;;;1.10;;
14078;SDS011;7115;50.150;8.568;2024-03-23T07:40:21;16.47;;;6.10;;
14078;SDS011;7115;50.150;8.568;2024-03-23T07:42:47;17.90;;;9.37;;
14078;SDS011;7115;50.150;8.568;2024-03-23T07:45:13;4.63;;;1.70;;
14078;SDS011;7115;50.150;8.568;2024-03-23T07:47:39;4.03;;;1.80;;
14078;SDS011;7115;50.150;8.568;2024-03-23T07:50:07;5.20;;;1.87;;
14078;SDS011;7115;50.150;8.568;2024-03-23T07:52:34;6.97;;;2.13;;
14078;SDS011;7115;50.150;8.568;2024-03-23T07:55:00;5.73;;;2.50;;
14078;SDS011;7115;50.150;8.568;2024-03-23T07:57:26;4.63;;;2.23;;
14078;SDS011;7115;50.150;8.568;2024-03-23T07:59:52;11.17;;;3.10;;
14078;SDS011;7115;50.150;8.568;2024-03-23T08:02:18;4.87;;;2.83;;
14078;SDS011;7115;50.150;8.568;2024-03-23T08:04:44;6.43;;;3.17;;
14078;SDS011;7115;50.150;8.568;2024-03-23T08:07:11;6.23;;;3.23;;
14078;SDS011;7115;50.150;8.568;2024-03-23T08:09:37;4.50;;;2.87;;
14078;SDS011;7115;50.150;8.568;2024-03-23T08:12:03;8.57;;;3.73;;
14078;SDS011;7115;50.150;8.568;2024-03-23T08:14:30;8.53;;;4.33;;
14078;SDS011;7115;50.150;8.568;2024-03-23T08:16:56;4.67;;;2.93;;
14078;SDS011;7115;50.150;8.568;2024-03-23T08:19:22;5.60;;;3.27;;
14078;SDS011;7115;50.150;8.568;2024-03-23T08:21:48;6.97;;;3.43;;
14078;SDS011;7115;50.150;8.568;2024-03-23T08:24:17;13.17;;;3.40;;
14078;SDS011;7115;50.150;8.568;2024-03-23T08:26:43;6.37;;;2.97;;
14078;SDS011;7115;50.150;8.568;2024-03-23T08:29:09;8.67;;;3.23;;
14078;SDS011;7115;50.150;8.568;2024-03-23T08:31:35;7.57;;;2.70;;
14078;SDS011;7115;50.150;8.568;2024-03-23T08:34:01;7.43;;;2.53;;
14078;SDS011;7115;50.150;8.568;2024-03-23T08:36:26;7.47;;;3.43;;
14078;SDS011;7115;50.150;8.568;2024-03-23T08:38:53;5.30;;;3.23;;
14078;SDS011;7115;50.150;8.568;2024-03-23T08:41:21;7.80;;;3.27;;
14078;SDS011;7115;50.150;8.568;2024-03-23T08:43:47;6.27;;;2.87;;
14078;SDS011;7115;50.150;8.568;2024-03-23T08:46:14;5.77;;;2.00;;
14078;SDS011;7115;50.150;8.568;2024-03-23T08:48:41;7.40;;;2.30;;
14078;SDS011;7115;50.150;8.568;2024-03-23T08:51:11;7.50;;;2.40;;
14078;SDS011;7115;50.150;8.568;2024-03-23T08:53:38;6.73;;;2.43;;
14078;SDS011;7115;50.150;8.568;2024-03-23T08:56:05;8.47;;;2.70;;
14078;SDS011;7115;50.150;8.568;2024-03-23T08:58:34;10.53;;;2.70;;
14078;SDS011;7115;50.150;8.568;2024-03-23T09:01:04;10.50;;;2.93;;
14078;SDS011;7115;50.150;8.568;2024-03-23T09:03:32;10.67;;;3.20;;
14078;SDS011;7115;50.150;8.568;2024-03-23T09:05:58;10.07;;;3.33;;
14078;SDS011;7115;50.150;8.568;2024-03-23T09:08:24;12.70;;;3.30;;
14078;SDS011;7115;50.150;8.568;2024-03-23T09:10:51;7.30;;;2.90;;
14078;SDS011;7115;50.150;8.568;2024-03-23T09:13:17;11.63;;;2.53;;
14078;SDS011;7115;50.150;8.568;2024-03-23T09:15:47;13.37;;;3.80;;
14078;SDS011;7115;50.150;8.568;2024-03-23T09:18:14;11.80;;;3.50;;
14078;SDS011;7115;50.150;8.568;2024-03-23T09:24:30;7.60;;;2.27;;
14078;SDS011;7115;50.150;8.568;2024-03-23T09:26:57;9.40;;;2.87;;
14078;SDS011;7115;50.150;8.568;2024-03-23T09:29:23;12.13;;;2.70;;
14078;SDS011;7115;50.150;8.568;2024-03-23T09:31:50;14.10;;;3.47;;
14078;SDS011;7115;50.150;8.568;2024-03-23T09:34:16;9.23;;;3.23;;
14078;SDS011;7115;50.150;8.568;2024-03-23T09:36:42;12.17;;;3.30;;
14078;SDS011;7115;50.150;8.568;2024-03-23T09:39:08;7.03;;;2.53;;
14078;SDS011;7115;50.150;8.568;2024-03-23T09:41:35;9.80;;;2.07;;
14078;SDS011;7115;50.150;8.568;2024-03-23T09:44:03;8.97;;;3.30;;
14078;SDS011;7115;50.150;8.568;2024-03-23T09:46:30;13.10;;;7.73;;
14078;SDS011;7115;50.150;8.568;2024-03-23T09:49:01;8.60;;;2.37;;
14078;SDS011;7115;50.150;8.568;2024-03-23T09:51:29;7.80;;;2.33;;
14078;SDS011;7115;50.150;8.568;2024-03-23T09:53:55;5.03;;;2.20;;
14078;SDS011;7115;50.150;8.568;2024-03-23T09:56:22;8.50;;;2.10;;
14078;SDS011;7115;50.150;8.568;2024-03-23T09:58:49;6.53;;;1.80;;
14078;SDS011;7115;50.150;8.568;2024-03-23T10:01:15;11.70;;;1.73;;
14078;SDS011;7115;50.150;8.568;2024-03-23T10:03:42;7.77;;;1.93;;
14078;SDS011;7115;50.150;8.568;2024-03-23T10:06:10;8.53;;;1.70;;
14078;SDS011;7115;50.150;8.568;2024-03-23T10:08:36;7.00;;;1.57;;
14078;SDS011;7115;50.150;8.568;2024-03-23T10:11:12;5.40;;;1.50;;
14078;SDS011;7115;50.150;8.568;2024-03-23T10:13:39;4.40;;;1.60;;
14078;SDS011;7115;50.150;8.568;2024-03-23T10:16:07;4.73;;;1.43;;
14078;SDS011;7115;50.150;8.568;2024-03-23T10:18:36;4.67;;;1.43;;
14078;SDS011;7115;50.150;8.568;2024-03-23T10:21:06;6.30;;;1.47;;
14078;SDS011;7115;50.150;8.568;2024-03-23T10:23:40;5.73;;;1.60;;
14078;SDS011;7115;50.150;8.568;2024-03-23T10:26:14;9.43;;;1.43;;
14078;SDS011;7115;50.150;8.568;2024-03-23T10:28:54;7.30;;;2.27;;
14078;SDS011;7115;50.150;8.568;2024-03-23T10:31:26;11.43;;;2.03;;
14078;SDS011;7115;50.150;8.568;2024-03-23T10:33:52;4.57;;;1.40;;
14078;SDS011;7115;50.150;8.568;2024-03-23T10:36:21;4.33;;;1.30;;
14078;SDS011;7115;50.150;8.568;2024-03-23T10:38:50;3.73;;;1.37;;
14078;SDS011;7115;50.150;8.568;2024-03-23T10:41:17;4.90;;;1.30;;
14078;SDS011;7115;50.150;8.568;2024-03-23T10:43:44;3.50;;;1.20;;
14078;SDS011;7115;50.150;8.568;2024-03-23T10:46:12;4.87;;;1.37;;
14078;SDS011;7115;50.150;8.568;2024-03-23T10:48:38;2.60;;;1.23;;
14078;SDS011;7115;50.150;8.568;2024-03-23T10:51:04;6.67;;;1.40;;
14078;SDS011;7115;50.150;8.568;2024-03-23T10:53:32;3.63;;;1.27;;
14078;SDS011;7115;50.150;8.568;2024-03-23T10:56:00;8.90;;;1.70;;
14078;SDS011;7115;50.150;8.568;2024-03-23T10:58:27;3.27;;;1.17;;
14078;SDS011;7115;50.150;8.568;2024-03-23T11:00:56;4.20;;;1.10;;
14078;SDS011;7115;50.150;8.568;2024-03-23T11:03:29;12.43;;;5.00;;
14078;SDS011;7115;50.150;8.568;2024-03-23T11:05:56;1.60;;;0.87;;
14078;SDS011;7115;50.150;8.568;2024-03-23T11:08:32;2.33;;;0.80;;
14078;SDS011;7115;50.150;8.568;2024-03-23T11:11:14;15.57;;;5.87;;
14078;SDS011;7115;50.150;8.568;2024-03-23T11:13:42;10.67;;;4.70;;
14078;SDS011;7115;50.150;8.568;2024-03-23T11:16:12;1.70;;;1.10;;
14078;SDS011;7115;50.150;8.568;2024-03-23T11:18:39;5.77;;;1.17;;
14078;SDS011;7115;50.150;8.568;2024-03-23T11:21:06;4.17;;;1.00;;
14078;SDS011;7115;50.150;8.568;2024-03-23T11:23:32;3.53;;;1.20;;
14078;SDS011;7115;50.150;8.568;2024-03-23T11:25:58;11.03;;;1.67;;
14078;SDS011;7115;50.150;8.568;2024-03-23T11:28:26;3.93;;;1.40;;
14078;SDS011;7115;50.150;8.568;2024-03-23T11:30:52;5.67;;;1.50;;
14078;SDS011;7115;50.150;8.568;2024-03-23T11:33:17;5.40;;;1.47;;
14078;SDS011;7115;50.150;8.568;2024-03-23T11:35:44;6.60;;;1.47;;
14078;SDS011;7115;50.150;8.568;2024-03-23T11:38:10;7.47;;;1.43;;
14078;SDS011;7115;50.150;8.568;2024-03-23T11:40:37;4.60;;;1.67;;
14078;SDS011;7115;50.150;8.568;2024-03-23T11:43:05;4.53;;;1.90;;
14078;SDS011;7115;50.150;8.568;2024-03-23T11:45:36;5.03;;;1.37;;
14078;SDS011;7115;50.150;8.568;2024-03-23T11:48:05;7.83;;;1.97;;
14078;SDS011;7115;50.150;8.568;2024-03-23T11:50:32;4.73;;;1.80;;
14078;SDS011;7115;50.150;8.568;2024-03-23T11:53:08;8.67;;;2.30;;
14078;SDS011;7115;50.150;8.568;2024-03-23T11:55:47;6.83;;;2.10;;
14078;SDS011;7115;50.150;8.568;2024-03-23T11:58:15;4.50;;;1.90;;
14078;SDS011;7115;50.150;8.568;2024-03-23T12:00:48;15.30;;;7.40;;
14078;SDS011;7115;50.150;8.568;2024-03-23T12:03:16;7.17;;;2.00;;
14078;SDS011;7115;50.150;8.568;2024-03-23T12:05:47;7.53;;;2.20;;
14078;SDS011;7115;50.150;8.568;2024-03-23T12:08:15;6.43;;;2.10;;
14078;SDS011;7115;50.150;8.568;2024-03-23T12:10:48;7.63;;;2.30;;
14078;SDS011;7115;50.150;8.568;2024-03-23T12:13:16;7.37;;;2.00;;
14078;SDS011;7115;50.150;8.568;2024-03-23T12:15:45;6.90;;;2.40;;
14078;SDS011;7115;50.150;8.568;2024-03-23T12:18:11;6.20;;;2.20;;
14078;SDS011;7115;50.150;8.568;2024-03-23T12:20:38;3.90;;;2.00;;
14078;SDS011;7115;50.150;8.568;2024-03-23T12:23:05;5.23;;;1.90;;
14078;SDS011;7115;50.150;8.568;2024-03-23T12:25:32;4.13;;;1.50;;
14078;SDS011;7115;50.150;8.568;2024-03-23T12:27:58;2.80;;;1.50;;
14078;SDS011;7115;50.150;8.568;2024-03-23T12:30:24;8.63;;;1.93;;
14078;SDS011;7115;50.150;8.568;2024-03-23T12:32:52;5.27;;;1.40;;
14078;SDS011;7115;50.150;8.568;2024-03-23T12:35:18;8.33;;;1.50;;
14078;SDS011;7115;50.150;8.568;2024-03-23T12:37:44;9.80;;;5.27;;
14078;SDS011;7115;50.150;8.568;2024-03-23T12:40:10;4.50;;;1.50;;
14078;SDS011;7115;50.150;8.568;2024-03-23T12:42:36;6.57;;;1.70;;
14078;SDS011;7115;50.150;8.568;2024-03-23T12:45:03;4.03;;;1.80;;
14078;SDS011;7115;50.150;8.568;2024-03-23T12:47:30;7.10;;;1.70;;
14078;SDS011;7115;50.150;8.568;2024-03-23T12:49:57;5.93;;;1.80;;
14078;SDS011;7115;50.150;8.568;2024-03-23T12:52:23;3.93;;;1.50;;
14078;SDS011;7115;50.150;8.568;2024-03-23T12:54:54;3.27;;;1.50;;
14078;SDS011;7115;50.150;8.568;2024-03-23T12:57:21;2.93;;;1.43;;
14078;SDS011;7115;50.150;8.568;2024-03-23T12:59:48;5.13;;;1.47;;
14078;SDS011;7115;50.150;8.568;2024-03-23T13:02:16;7.07;;;1.67;;
14078;SDS011;7115;50.150;8.568;2024-03-23T13:04:43;7.67;;;1.70;;
14078;SDS011;7115;50.150;8.568;2024-03-23T13:07:11;4.47;;;1.57;;
14078;SDS011;7115;50.150;8.568;2024-03-23T13:09:38;3.50;;;1.00;;
14078;SDS011;7115;50.150;8.568;2024-03-23T13:12:04;5.50;;;1.13;;
14078;SDS011;7115;50.150;8.568;2024-03-23T13:14:30;1.40;;;0.80;;
14078;SDS011;7115;50.150;8.568;2024-03-23T13:16:56;2.40;;;0.70;;
14078;SDS011;7115;50.150;8.568;2024-03-23T13:19:22;1.27;;;0.57;;
14078;SDS011;7115;50.150;8.568;2024-03-23T13:21:52;1.13;;;0.50;;
14078;SDS011;7115;50.150;8.568;2024-03-23T13:24:22;1.00;;;0.63;;
14078;SDS011;7115;50.150;8.568;2024-03-23T13:26:49;1.30;;;0.60;;
14078;SDS011;7115;50.150;8.568;2024-03-23T13:29:16;1.57;;;0.60;;
14078;SDS011;7115;50.150;8.568;2024-03-23T13:31:42;0.33;;;0.30;;
14078;SDS011;7115;50.150;8.568;2024-03-23T13:34:08;1.10;;;0.60;;
14078;SDS011;7115;50.150;8.568;2024-03-23T13:36:34;1.03;;;0.30;;
14078;SDS011;7115;50.150;8.568;2024-03-23T13:39:01;1.03;;;0.37;;
14078;SDS011;7115;50.150;8.568;2024-03-23T13:41:32;0.60;;;0.30;;
14078;SDS011;7115;50.150;8.568;2024-03-23T13:43:58;0.50;;;0.40;;
14078;SDS011;7115;50.150;8.568;2024-03-23T13:46:24;1.17;;;0.50;;
14078;SDS011;7115;50.150;8.568;2024-03-23T13:48:50;0.50;;;0.30;;
14078;SDS011;7115;50.150;8.568;2024-03-23T13:51:22;0.90;;;0.30;;
14078;SDS011;7115;50.150;8.568;2024-03-23T13:53:49;0.77;;;0.30;;
14078;SDS011;7115;50.150;8.568;2024-03-23T13:56:15;0.10;;;0.07;;
14078;SDS011;7115;50.150;8.568;2024-03-23T13:58:43;3.80;;;0.40;;
14078;SDS011;7115;50.150;8.568;2024-03-23T14:01:12;0.80;;;0.40;;
14078;SDS011;7115;50.150;8.568;2024-03-23T14:03:39;0.40;;;0.20;;
14078;SDS011;7115;50.150;8.568;2024-03-23T14:06:06;0.50;;;0.30;;
14078;SDS011;7115;50.150;8.568;2024-03-23T14:08:33;1.20;;;0.40;;
14078;SDS011;7115;50.150;8.568;2024-03-23T14:11:01;0.70;;;0.40;;
14078;SDS011;7115;50.150;8.568;2024-03-23T14:13:29;0.47;;;0.30;;
14078;SDS011;7115;50.150;8.568;2024-03-23T14:15:56;0.40;;;0.20;;
14078;SDS011;7115;50.150;8.568;2024-03-23T14:18:23;0.20;;;0.20;;
14078;SDS011;7115;50.150;8.568;2024-03-23T14:20:49;0.87;;;0.30;;
14078;SDS011;7115;50.150;8.568;2024-03-23T14:23:15;4.40;;;0.30;;
14078;SDS011;7115;50.150;8.568;2024-03-23T14:25:42;1.83;;;0.23;;
14078;SDS011;7115;50.150;8.568;2024-03-23T14:28:08;0.73;;;0.30;;
14078;SDS011;7115;50.150;8.568;2024-03-23T14:30:39;2.30;;;0.40;;
14078;SDS011;7115;50.150;8.568;2024-03-23T14:33:07;1.63;;;0.60;;
14078;SDS011;7115;50.150;8.568;2024-03-23T14:35:33;1.70;;;0.47;;
14078;SDS011;7115;50.150;8.568;2024-03-23T14:37:59;4.30;;;0.60;;
14078;SDS011;7115;50.150;8.568;2024-03-23T14:40:25;0.40;;;0.30;;
14078;SDS011;7115;50.150;8.568;2024-03-23T14:42:54;1.30;;;0.50;;
14078;SDS011;7115;50.150;8.568;2024-03-23T14:45:21;1.50;;;0.40;;
14078;SDS011;7115;50.150;8.568;2024-03-23T14:47:47;0.77;;;0.43;;
14078;SDS011;7115;50.150;8.568;2024-03-23T14:50:15;0.90;;;0.60;;
14078;SDS011;7115;50.150;8.568;2024-03-23T14:52:42;0.80;;;0.40;;
14078;SDS011;7115;50.150;8.568;2024-03-23T14:55:09;1.20;;;0.40;;
14078;SDS011;7115;50.150;8.568;2024-03-23T14:57:36;1.83;;;0.70;;
14078;SDS011;7115;50.150;8.568;2024-03-23T15:00:02;1.00;;;0.50;;
14078;SDS011;7115;50.150;8.568;2024-03-23T15:02:30;2.87;;;1.23;;
14078;SDS011;7115;50.150;8.568;2024-03-23T15:04:57;1.43;;;0.80;;
14078;SDS011;7115;50.150;8.568;2024-03-23T15:07:25;3.67;;;0.80;;
14078;SDS011;7115;50.150;8.568;2024-03-23T15:09:51;3.93;;;0.60;;
14078;SDS011;7115;50.150;8.568;2024-03-23T15:12:17;1.23;;;0.83;;
14078;SDS011;7115;50.150;8.568;2024-03-23T15:14:43;2.73;;;0.50;;
14078;SDS011;7115;50.150;8.568;2024-03-23T15:17:09;2.80;;;0.70;;
14078;SDS011;7115;50.150;8.568;2024-03-23T15:19:35;1.60;;;0.50;;
14078;SDS011;7115;50.150;8.568;2024-03-23T15:22:01;1.27;;;0.50;;
14078;SDS011;7115;50.150;8.568;2024-03-23T15:24:29;1.67;;;0.50;;
14078;SDS011;7115;50.150;8.568;2024-03-23T15:26:56;1.60;;;0.50;;
14078;SDS011;7115;50.150;8.568;2024-03-23T15:29:22;0.93;;;0.40;;
14078;SDS011;7115;50.150;8.568;2024-03-23T15:31:48;3.23;;;0.40;;
14078;SDS011;7115;50.150;8.568;2024-03-23T15:34:17;3.37;;;0.57;;
14078;SDS011;7115;50.150;8.568;2024-03-23T15:36:44;1.43;;;0.47;;
14078;SDS011;7115;50.150;8.568;2024-03-23T15:39:10;0.50;;;0.30;;
14078;SDS011;7115;50.150;8.568;2024-03-23T15:41:40;1.97;;;0.50;;
14078;SDS011;7115;50.150;8.568;2024-03-23T15:44:06;1.20;;;0.37;;
14078;SDS011;7115;50.150;8.568;2024-03-23T15:46:32;3.20;;;0.80;;
14078;SDS011;7115;50.150;8.568;2024-03-23T15:48:58;1.07;;;0.80;;
14078;SDS011;7115;50.150;8.568;2024-03-23T15:51:24;3.73;;;2.30;;
14078;SDS011;7115;50.150;8.568;2024-03-23T15:53:56;6.10;;;3.47;;